Time;durP1;ratioP1;P1;durP2;ratioP2;P2;SDS_P1;SDS_P2;PMS_P1;PMS_P2;Temp;Humidity;BMP_temperature;BMP_pressure;BME280_temperature;BME280_humidity;BME280_pressure;Samples;Min_cycle;Max_cycle;Signal;HPM_P1;HPM_P2
2022/09/23 00:00:36;;;;;;;9.57;7.65;;;11.90;95.10;;;;;;4868706;29;20080;-56
2022/09/23 00:03:03;;;;;;;9.05;7.00;;;11.90;95.20;;;;;;4865909;29;20053;-57
2022/09/23 00:05:29;;;;;;;10.27;7.63;;;11.90;95.40;;;;;;4866762;29;20044;-57
2022/09/23 00:07:56;;;;;;;11.32;7.70;;;11.90;95.50;;;;;;4867238;29;20191;-57
2022/09/23 00:10:25;;;;;;;11.43;8.43;;;11.80;95.60;;;;;;4864785;29;20090;-58
2022/09/23 00:12:51;;;;;;;10.73;8.38;;;11.80;95.70;;;;;;4865643;29;20049;-57
2022/09/23 00:15:17;;;;;;;10.02;7.50;;;11.80;95.80;;;;;;4867276;29;21968;-58
2022/09/23 00:17:44;;;;;;;11.98;7.90;;;11.80;95.90;;;;;;4866917;29;20093;-56
2022/09/23 00:20:10;;;;;;;13.45;8.35;;;11.80;96.00;;;;;;4867755;29;20088;-57
2022/09/23 00:22:37;;;;;;;14.20;8.27;;;11.80;96.10;;;;;;4865205;29;20060;-57
2022/09/23 00:25:05;;;;;;;14.55;7.50;;;11.70;96.10;;;;;;4867472;29;20048;-57
2022/09/23 00:27:32;;;;;;;14.70;8.50;;;11.70;96.40;;;;;;4865619;29;20310;-58
2022/09/23 00:29:57;;;;;;;13.38;8.55;;;11.80;96.40;;;;;;4863745;29;20412;-56
2022/09/23 00:32:23;;;;;;;12.48;8.88;;;11.70;96.50;;;;;;4873449;29;20040;-58
2022/09/23 00:34:50;;;;;;;13.07;9.15;;;11.60;96.60;;;;;;4856299;29;20056;-57
2022/09/23 00:37:16;;;;;;;12.30;8.95;;;11.60;96.80;;;;;;4863094;29;20079;-56
2022/09/23 00:39:44;;;;;;;12.00;8.27;;;11.60;96.90;;;;;;4879402;29;20056;-57
2022/09/23 00:42:16;;;;;;;13.07;8.85;;;11.60;97.00;;;;;;4867015;29;20060;-57
2022/09/23 00:44:57;;;;;;;13.65;8.90;;;11.60;97.10;;;;;;4867629;29;20067;-57
2022/09/23 00:47:51;;;;;;;13.43;9.15;;;11.50;97.10;;;;;;4866014;29;20507;-57
2022/09/23 00:50:35;;;;;;;10.85;8.32;;;11.50;97.20;;;;;;4878827;29;20053;-57
2022/09/23 00:53:08;;;;;;;12.57;8.65;;;11.50;97.30;;;;;;4864236;29;20519;-56
2022/09/23 00:55:51;;;;;;;11.32;8.05;;;11.50;97.30;;;;;;4866562;29;20422;-56
2022/09/23 00:58:22;;;;;;;15.15;8.27;;;11.50;97.40;;;;;;4866423;29;20447;-56
2022/09/23 01:00:48;;;;;;;12.18;7.80;;;11.50;97.50;;;;;;4865429;29;20164;-56
2022/09/23 01:03:14;;;;;;;13.30;8.50;;;11.50;97.60;;;;;;4862832;29;20489;-56
2022/09/23 01:05:40;;;;;;;10.50;8.15;;;11.40;97.60;;;;;;4862380;29;20707;-57
2022/09/23 01:08:09;;;;;;;15.00;8.38;;;11.40;97.70;;;;;;4861326;29;20135;-55
2022/09/23 01:11:13;;;;;;;12.18;7.85;;;11.40;98.00;;;;;;4866584;29;20068;-57
2022/09/23 01:14:01;;;;;;;12.68;8.35;;;11.50;97.70;;;;;;4849191;29;20107;-57
2022/09/23 01:17:00;;;;;;;11.00;8.05;;;11.50;97.70;;;;;;4865864;29;20143;-57
2022/09/23 01:19:26;;;;;;;13.20;8.55;;;11.50;97.70;;;;;;4865684;29;20044;-57
2022/09/23 01:22:01;;;;;;;17.77;8.60;;;11.50;97.40;;;;;;4864503;29;21771;-57
2022/09/23 01:24:45;;;;;;;14.52;8.63;;;11.50;97.70;;;;;;4872272;29;20353;-57
2022/09/23 01:27:48;;;;;;;12.23;8.90;;;11.50;97.70;;;;;;4872518;29;20432;-57
2022/09/23 01:30:35;;;;;;;10.70;8.05;;;11.50;97.70;;;;;;4872875;29;20403;-56
2022/09/23 01:33:21;;;;;;;13.05;8.05;;;11.50;97.60;;;;;;4873746;29;20068;-57
2022/09/23 01:35:59;;;;;;;9.25;7.85;;;11.50;97.60;;;;;;4871842;29;20533;-57
2022/09/23 01:38:34;;;;;;;9.95;7.60;;;11.50;97.60;;;;;;4869158;29;20063;-56
2022/09/23 01:41:31;;;;;;;10.88;6.63;;;11.50;97.70;;;;;;4869807;29;20488;-57
2022/09/23 01:44:18;;;;;;;10.15;6.97;;;11.50;97.80;;;;;;4868154;29;20468;-56
2022/09/23 01:46:52;;;;;;;15.02;7.47;;;11.50;97.70;;;;;;4868367;29;20770;-56
2022/09/23 01:49:21;;;;;;;12.38;7.35;;;11.50;97.80;;;;;;4870010;29;20492;-56
2022/09/23 01:51:54;;;;;;;13.00;7.82;;;11.50;97.80;;;;;;4868719;29;20084;-56
2022/09/23 01:54:50;;;;;;;13.45;7.28;;;11.50;97.90;;;;;;4869853;29;20140;-57
2022/09/23 01:57:37;;;;;;;9.45;7.05;;;11.50;98.00;;;;;;4868235;29;20763;-57
2022/09/23 02:00:25;;;;;;;9.85;7.13;;;11.50;98.00;;;;;;4869793;29;20128;-57
2022/09/23 02:02:58;;;;;;;10.88;6.65;;;11.50;97.80;;;;;;4867751;29;20456;-57
2022/09/23 02:05:27;;;;;;;;;;;11.50;97.70;;;;;;4870762;29;20056;-57
2022/09/23 02:08:02;;;;;;;10.52;6.78;;;11.50;97.60;;;;;;4869888;29;20315;-56
2022/09/23 02:10:31;;;;;;;8.20;6.60;;;11.50;97.40;;;;;;4867395;29;20069;-57
2022/09/23 02:13:04;;;;;;;9.77;7.15;;;11.50;97.30;;;;;;4869119;29;20523;-56
2022/09/23 02:15:39;;;;;;;14.55;6.88;;;11.60;97.30;;;;;;4870459;29;20051;-57
2022/09/23 02:18:14;;;;;;;10.15;7.28;;;11.60;97.30;;;;;;4870057;29;20111;-57
2022/09/23 02:20:42;;;;;;;12.30;7.75;;;11.60;97.30;;;;;;4869140;29;20048;-56
2022/09/23 02:23:11;;;;;;;8.98;6.93;;;11.50;97.30;;;;;;4867128;29;20496;-57
2022/09/23 02:26:00;;;;;;;10.93;7.38;;;11.50;97.40;;;;;;4870131;29;20092;-57
2022/09/23 02:28:37;;;;;;;9.88;6.80;;;11.50;97.60;;;;;;4849093;29;20619;-57
2022/09/23 02:31:19;;;;;;;12.48;7.10;;;11.50;97.30;;;;;;4870424;29;20124;-57
2022/09/23 02:33:51;;;;;;;8.23;6.47;;;11.50;97.20;;;;;;4868590;29;20052;-57
2022/09/23 02:36:33;;;;;;;13.98;7.95;;;11.50;97.30;;;;;;4870478;29;22268;-57
2022/09/23 02:39:04;;;;;;;9.77;6.35;;;11.50;97.20;;;;;;4882554;29;20053;-58
2022/09/23 02:41:48;;;;;;;9.98;6.72;;;11.40;97.20;;;;;;4868758;29;20150;-57
2022/09/23 02:44:17;;;;;;;10.77;7.07;;;11.40;97.20;;;;;;4869855;29;20063;-56
2022/09/23 02:46:43;;;;;;;10.05;7.13;;;11.50;97.20;;;;;;4867679;29;20465;-58
2022/09/23 02:49:30;;;;;;;10.13;7.00;;;11.40;97.20;;;;;;4870299;29;20056;-57
2022/09/23 02:52:02;;;;;;;10.32;7.15;;;11.40;97.20;;;;;;4867206;29;20055;-57
2022/09/23 02:54:28;;;;;;;8.88;6.97;;;11.40;97.20;;;;;;4866501;29;20053;-56
2022/09/23 02:56:54;;;;;;;12.15;8.15;;;11.30;97.30;;;;;;4866896;29;20711;-57
2022/09/23 02:59:21;;;;;;;9.02;7.15;;;11.30;97.40;;;;;;4867866;29;20545;-57
2022/09/23 03:02:16;;;;;;;9.30;8.02;;;11.20;97.60;;;;;;4868049;29;20818;-56
2022/09/23 03:05:02;;;;;;;11.27;8.10;;;11.20;97.70;;;;;;4869693;29;20063;-57
2022/09/23 03:07:53;;;;;;;9.35;8.13;;;11.20;97.80;;;;;;4866423;29;20052;-57
2022/09/23 03:10:39;;;;;;;10.68;8.20;;;11.10;97.80;;;;;;4870472;29;20456;-57
2022/09/23 03:13:45;;;;;;;10.05;8.25;;;11.10;97.90;;;;;;4867614;29;20049;-58
2022/09/23 03:16:23;;;;;;;11.05;8.18;;;11.00;97.90;;;;;;4853787;29;20491;-58
2022/09/23 03:18:59;;;;;;;13.23;8.43;;;11.10;98.00;;;;;;4867997;29;20051;-58
2022/09/23 03:21:39;;;;;;;13.90;8.50;;;11.10;98.10;;;;;;4868152;29;20144;-58
2022/09/23 03:24:07;;;;;;;12.70;9.13;;;11.00;98.20;;;;;;4867607;29;20229;-57
2022/09/23 03:26:37;;;;;;;11.50;8.10;;;11.00;98.20;;;;;;4868345;29;20056;-57
2022/09/23 03:29:10;;;;;;;11.82;8.38;;;11.00;98.30;;;;;;4866272;29;20394;-57
2022/09/23 03:31:38;;;;;;;10.20;9.15;;;11.00;98.40;;;;;;4873131;29;20511;-57
2022/09/23 03:34:17;;;;;;;14.27;9.15;;;11.00;98.50;;;;;;4873788;29;20120;-57
2022/09/23 03:36:56;;;;;;;11.07;8.80;;;11.00;98.50;;;;;;4877358;29;20091;-57
2022/09/23 03:39:42;;;;;;;10.40;8.50;;;10.90;98.60;;;;;;4867822;29;20049;-56
2022/09/23 03:42:11;;;;;;;11.93;9.27;;;10.90;98.70;;;;;;4866361;29;20064;-55
2022/09/23 03:44:42;;;;;;;11.98;8.93;;;10.90;98.70;;;;;;4865722;29;20456;-57
2022/09/23 03:47:08;;;;;;;10.00;8.85;;;10.80;98.80;;;;;;4865377;29;20045;-58
2022/09/23 03:49:38;;;;;;;13.00;9.25;;;10.80;98.80;;;;;;4868207;29;20456;-58
2022/09/23 03:52:04;;;;;;;13.77;9.48;;;10.80;98.90;;;;;;4868983;29;20140;-56
2022/09/23 03:54:31;;;;;;;14.32;10.50;;;10.80;98.90;;;;;;4866944;29;20053;-58
2022/09/23 03:56:57;;;;;;;16.38;9.57;;;10.80;99.00;;;;;;4874399;29;20068;-57
2022/09/23 03:59:27;;;;;;;11.20;9.50;;;10.80;99.10;;;;;;4868849;29;20500;-56
2022/09/23 04:01:54;;;;;;;13.68;10.35;;;10.70;99.10;;;;;;4865153;29;20080;-58
2022/09/23 04:04:20;;;;;;;12.43;9.90;;;10.70;99.20;;;;;;4865322;29;20084;-58
2022/09/23 04:06:46;;;;;;;15.15;10.63;;;10.70;99.20;;;;;;4866043;29;20506;-57
2022/09/23 04:09:11;;;;;;;15.30;10.25;;;10.70;99.30;;;;;;4864572;29;20179;-57
2022/09/23 04:11:37;;;;;;;12.20;10.25;;;10.70;99.40;;;;;;4865564;29;20052;-58
2022/09/23 04:14:03;;;;;;;13.63;10.88;;;10.60;99.50;;;;;;4866362;29;20056;-57
2022/09/23 04:16:29;;;;;;;12.68;10.10;;;10.60;99.60;;;;;;4878704;29;20770;-56
2022/09/23 04:18:55;;;;;;;16.00;10.20;;;10.60;99.70;;;;;;4864577;29;20085;-58
2022/09/23 04:21:21;;;;;;;13.32;10.38;;;10.60;99.80;;;;;;4865841;29;20571;-54
2022/09/23 04:23:47;;;;;;;11.60;10.40;;;10.50;99.80;;;;;;4864907;29;20164;-56
2022/09/23 04:26:13;;;;;;;11.93;10.20;;;10.50;99.90;;;;;;4869314;29;20515;-56
2022/09/23 04:28:39;;;;;;;12.63;10.27;;;10.50;99.90;;;;;;4864852;29;20436;-57
2022/09/23 04:31:07;;;;;;;15.38;10.52;;;10.40;99.90;;;;;;4867557;29;20471;-57
2022/09/23 04:33:33;;;;;;;13.00;10.10;;;10.40;99.90;;;;;;4866839;29;20079;-57
2022/09/23 04:35:59;;;;;;;13.20;11.00;;;10.40;99.90;;;;;;4868110;29;20393;-55
2022/09/23 04:38:25;;;;;;;15.05;11.07;;;10.40;99.90;;;;;;4866481;29;20598;-57
2022/09/23 04:40:50;;;;;;;14.02;10.50;;;10.40;99.90;;;;;;4865097;29;20636;-57
2022/09/23 04:43:17;;;;;;;13.07;11.10;;;10.30;99.90;;;;;;4866261;29;20572;-57
2022/09/23 04:45:43;;;;;;;13.85;11.13;;;10.30;99.90;;;;;;4863679;29;20045;-56
2022/09/23 04:48:12;;;;;;;16.80;11.20;;;10.30;99.90;;;;;;4864654;29;20052;-57
2022/09/23 04:50:39;;;;;;;13.93;10.45;;;10.30;99.90;;;;;;4866740;29;20123;-57
2022/09/23 04:53:05;;;;;;;14.77;11.40;;;10.30;99.90;;;;;;4862126;29;20059;-58
2022/09/23 04:55:31;;;;;;;13.05;11.57;;;10.30;99.90;;;;;;4867689;29;20048;-57
2022/09/23 04:57:57;;;;;;;14.20;11.70;;;10.30;99.90;;;;;;4862357;29;20087;-57
2022/09/23 05:00:23;;;;;;;13.60;12.07;;;10.30;99.90;;;;;;4868861;29;20419;-56
2022/09/23 05:02:49;;;;;;;16.25;11.73;;;10.30;99.90;;;;;;4864013;29;20059;-57
2022/09/23 05:05:21;;;;;;;13.73;11.73;;;10.20;99.90;;;;;;4866737;29;20048;-56
2022/09/23 05:07:47;;;;;;;14.15;11.75;;;10.20;99.90;;;;;;4864695;29;20053;-57
2022/09/23 05:10:14;;;;;;;13.30;11.90;;;10.20;99.90;;;;;;4863936;29;20068;-57
2022/09/23 05:12:39;;;;;;;13.52;11.82;;;10.20;99.90;;;;;;4862348;29;20044;-57
2022/09/23 05:15:05;;;;;;;16.25;12.32;;;10.20;99.90;;;;;;4865307;29;20060;-57
2022/09/23 05:17:31;;;;;;;16.70;13.10;;;10.10;99.90;;;;;;4867130;29;20164;-57
2022/09/23 05:19:58;;;;;;;15.90;12.43;;;10.20;99.90;;;;;;4868293;29;20053;-57
2022/09/23 05:22:27;;;;;;;18.48;11.93;;;10.10;99.90;;;;;;4858560;29;20736;-58
2022/09/23 05:24:53;;;;;;;17.70;14.10;;;10.10;99.90;;;;;;4870953;29;20594;-58
2022/09/23 05:27:20;;;;;;;17.98;13.80;;;10.10;99.90;;;;;;4865312;29;20127;-57
2022/09/23 05:29:46;;;;;;;15.98;13.10;;;10.10;99.90;;;;;;4861367;29;20249;-58
2022/09/23 05:32:14;;;;;;;15.98;13.35;;;10.10;99.90;;;;;;4858343;29;20049;-58
2022/09/23 05:34:40;;;;;;;17.70;13.73;;;10.10;99.90;;;;;;4862627;29;20142;-56
2022/09/23 05:37:06;;;;;;;17.25;13.20;;;10.00;99.90;;;;;;4877748;29;20057;-57
2022/09/23 05:39:32;;;;;;;19.10;14.15;;;10.10;99.90;;;;;;4864152;29;20526;-58
2022/09/23 05:41:58;;;;;;;17.15;13.50;;;10.00;99.90;;;;;;4857613;29;20082;-57
2022/09/23 05:44:25;;;;;;;15.20;13.02;;;10.00;99.90;;;;;;4858574;29;20057;-58
2022/09/23 05:46:51;;;;;;;16.65;13.85;;;10.00;99.90;;;;;;4862111;29;20329;-56
2022/09/23 05:49:17;;;;;;;21.70;13.98;;;10.10;99.90;;;;;;4861685;29;20071;-56
2022/09/23 05:51:43;;;;;;;18.45;14.88;;;10.10;99.90;;;;;;4864894;29;20476;-56
2022/09/23 05:54:08;;;;;;;18.60;14.43;;;10.10;99.90;;;;;;4861303;29;20059;-57
2022/09/23 05:56:36;;;;;;;18.20;13.70;;;10.10;99.90;;;;;;4869667;29;20119;-56
2022/09/23 05:59:03;;;;;;;17.00;13.95;;;10.10;99.90;;;;;;4866773;29;20137;-58
2022/09/23 06:01:32;;;;;;;19.50;14.38;;;10.10;99.90;;;;;;4863069;29;20048;-57
2022/09/23 06:03:59;;;;;;;19.50;14.40;;;10.20;99.90;;;;;;4864721;29;20049;-55
2022/09/23 06:06:29;;;;;;;18.80;13.73;;;10.20;99.90;;;;;;4865313;29;20055;-56
2022/09/23 06:08:55;;;;;;;20.40;14.70;;;10.20;99.90;;;;;;4864216;29;20068;-59
2022/09/23 06:11:20;;;;;;;17.38;14.63;;;10.20;99.90;;;;;;4865571;29;20105;-50
2022/09/23 06:13:47;;;;;;;17.45;15.10;;;10.20;99.90;;;;;;4870227;29;20532;-53
2022/09/23 06:16:14;;;;;;;18.83;14.63;;;10.20;99.90;;;;;;4868005;29;20113;-52
2022/09/23 06:18:42;;;;;;;17.50;14.23;;;10.30;99.90;;;;;;4868473;29;20891;-53
2022/09/23 06:21:14;;;;;;;19.70;15.40;;;10.30;99.90;;;;;;4869683;29;20509;-53
2022/09/23 06:23:40;;;;;;;17.38;14.40;;;10.30;99.90;;;;;;4870846;29;20601;-53
2022/09/23 06:26:08;;;;;;;17.20;14.25;;;10.30;99.90;;;;;;4866361;29;20052;-53
2022/09/23 06:28:37;;;;;;;16.70;14.57;;;10.30;99.90;;;;;;4869117;29;20049;-54
2022/09/23 06:31:09;;;;;;;18.02;14.63;;;10.40;99.90;;;;;;4869631;29;20121;-52
2022/09/23 06:33:35;;;;;;;22.77;14.93;;;10.40;99.90;;;;;;4869400;29;20446;-52
2022/09/23 06:36:04;;;;;;;18.25;14.43;;;10.40;99.90;;;;;;4877943;29;20412;-50
2022/09/23 06:38:32;;;;;;;16.08;13.90;;;10.40;99.90;;;;;;4878050;29;20100;-52
2022/09/23 06:41:00;;;;;;;20.58;14.55;;;10.50;99.90;;;;;;4877319;29;20053;-53
2022/09/23 06:43:26;;;;;;;18.17;14.27;;;10.50;99.90;;;;;;4870146;29;20491;-52
2022/09/23 06:45:53;;;;;;;17.88;14.90;;;10.60;99.90;;;;;;4867811;29;20064;-50
2022/09/23 06:48:20;;;;;;;21.02;14.70;;;10.60;99.90;;;;;;4882659;29;20131;-53
2022/09/23 06:50:49;;;;;;;17.20;14.07;;;10.60;99.90;;;;;;4867700;29;20583;-51
2022/09/23 06:53:16;;;;;;;19.10;14.60;;;10.70;99.90;;;;;;4868328;29;20162;-52
2022/09/23 06:55:42;;;;;;;19.15;14.80;;;10.70;99.90;;;;;;4869562;29;20519;-53
2022/09/23 06:58:08;;;;;;;20.02;14.93;;;10.80;99.90;;;;;;4869420;29;20505;-50
2022/09/23 07:00:35;;;;;;;21.63;15.15;;;10.80;99.90;;;;;;4868956;29;20062;-54
2022/09/23 07:03:08;;;;;;;18.27;14.18;;;10.90;99.90;;;;;;4868791;29;20131;-52
2022/09/23 07:05:35;;;;;;;18.23;14.07;;;10.90;99.90;;;;;;4858516;29;20048;-55
2022/09/23 07:08:02;;;;;;;18.77;13.90;;;11.00;99.90;;;;;;4869092;29;20084;-53
2022/09/23 07:10:27;;;;;;;19.25;13.55;;;11.00;99.90;;;;;;4866291;29;20057;-51
2022/09/23 07:12:54;;;;;;;17.17;14.70;;;11.00;99.90;;;;;;4866355;29;20048;-53
2022/09/23 07:15:20;;;;;;;16.85;14.35;;;11.00;99.90;;;;;;4868514;29;20512;-50
2022/09/23 07:17:46;;;;;;;17.55;14.40;;;11.10;99.90;;;;;;4868198;29;20055;-52
2022/09/23 07:20:12;;;;;;;16.50;14.55;;;11.10;99.90;;;;;;4868699;29;20072;-53
2022/09/23 07:22:37;;;;;;;18.45;14.27;;;11.10;99.90;;;;;;4866961;29;20049;-50
2022/09/23 07:25:05;;;;;;;17.33;13.75;;;11.10;99.90;;;;;;4867548;29;20063;-54
2022/09/23 07:27:32;;;;;;;15.50;13.00;;;11.10;99.90;;;;;;4876708;29;20045;-53
2022/09/23 07:29:57;;;;;;;17.58;13.52;;;11.20;99.90;;;;;;4875115;29;20405;-54
2022/09/23 07:32:24;;;;;;;20.08;14.27;;;11.20;99.90;;;;;;4870312;29;20048;-50
2022/09/23 07:34:50;;;;;;;18.45;14.48;;;11.20;99.90;;;;;;4867842;29;20694;-52
2022/09/23 07:37:17;;;;;;;17.10;13.52;;;11.30;99.90;;;;;;4868128;29;20056;-53
2022/09/23 07:39:43;;;;;;;19.30;14.75;;;11.30;99.90;;;;;;4868843;29;20049;-54
2022/09/23 07:42:11;;;;;;;18.95;14.52;;;11.30;99.90;;;;;;4869969;29;20202;-55
2022/09/23 07:44:37;;;;;;;16.27;14.18;;;11.40;99.90;;;;;;4869694;29;20129;-53
2022/09/23 07:47:02;;;;;;;16.50;14.70;;;11.40;99.90;;;;;;4866146;29;20518;-51
2022/09/23 07:49:28;;;;;;;18.67;14.27;;;11.50;99.90;;;;;;4867010;29;20109;-52
2022/09/23 07:51:54;;;;;;;17.33;14.73;;;11.60;99.90;;;;;;4866251;29;20076;-52
2022/09/23 07:54:20;;;;;;;17.33;14.25;;;11.60;99.90;;;;;;4868402;29;20652;-50
2022/09/23 07:56:46;;;;;;;17.73;15.02;;;11.70;99.90;;;;;;4867375;29;20057;-51
2022/09/23 07:59:17;;;;;;;18.50;14.27;;;11.80;99.90;;;;;;4867974;29;20601;-50
2022/09/23 08:01:53;;;;;;;17.20;13.73;;;11.80;99.90;;;;;;4867149;29;20064;-51
2022/09/23 08:04:28;;;;;;;18.15;14.30;;;11.90;99.90;;;;;;4851577;29;20420;-52
2022/09/23 08:07:00;;;;;;;18.40;13.82;;;11.90;99.90;;;;;;4867602;29;20752;-51
2022/09/23 08:09:32;;;;;;;19.02;14.05;;;11.90;99.90;;;;;;4867989;29;20068;-52
2022/09/23 08:11:59;;;;;;;17.42;14.00;;;12.00;99.90;;;;;;4865801;29;20055;-50
2022/09/23 08:14:25;;;;;;;19.13;14.07;;;12.00;99.90;;;;;;4868576;29;20052;-52
2022/09/23 08:16:52;;;;;;;16.95;14.70;;;12.10;99.90;;;;;;4864760;29;20063;-52
2022/09/23 08:19:18;;;;;;;18.45;14.55;;;12.10;99.90;;;;;;4882570;29;20048;-52
2022/09/23 08:21:46;;;;;;;16.15;14.45;;;12.10;99.90;;;;;;4881128;29;20079;-52
2022/09/23 08:24:17;;;;;;;18.67;13.77;;;12.20;99.90;;;;;;4866334;29;20053;-55
2022/09/23 08:26:44;;;;;;;19.15;13.82;;;12.30;99.90;;;;;;4867939;29;20111;-52
2022/09/23 08:29:14;;;;;;;15.82;13.55;;;12.30;99.90;;;;;;4868092;29;20040;-53
2022/09/23 08:31:41;;;;;;;15.07;13.48;;;12.40;99.90;;;;;;4867229;29;20563;-54
2022/09/23 08:34:07;;;;;;;15.52;13.15;;;12.50;99.90;;;;;;4866466;29;20053;-53
2022/09/23 08:36:34;;;;;;;17.20;13.35;;;12.60;99.90;;;;;;4868060;29;20053;-52
2022/09/23 08:39:00;;;;;;;18.88;13.50;;;12.70;99.90;;;;;;4873723;29;20127;-53
2022/09/23 08:41:45;;;;;;;18.55;12.63;;;12.80;99.90;;;;;;4868937;29;20049;-50
2022/09/23 08:44:36;;;;;;;15.68;11.98;;;12.90;99.90;;;;;;4865250;29;20061;-54
2022/09/23 08:47:10;;;;;;;17.60;11.95;;;13.10;99.90;;;;;;4865945;29;20069;-49
2022/09/23 08:49:44;;;;;;;16.83;12.10;;;13.20;99.90;;;;;;4866673;29;20163;-51
2022/09/23 08:52:50;;;;;;;16.10;12.15;;;13.30;99.90;;;;;;4869370;29;20048;-52
2022/09/23 08:55:18;;;;;;;16.30;11.95;;;13.50;99.90;;;;;;4872807;29;20049;-52
2022/09/23 08:58:18;;;;;;;13.93;11.48;;;13.60;99.90;;;;;;4886577;29;20044;-53
2022/09/23 09:00:55;;;;;;;18.88;12.10;;;13.60;99.90;;;;;;4873357;29;20716;-51
2022/09/23 09:03:23;;;;;;;18.70;12.25;;;13.70;99.90;;;;;;4870675;29;20060;-52
2022/09/23 09:05:52;;;;;;;17.80;12.10;;;13.70;99.90;;;;;;4871854;29;20140;-50
2022/09/23 09:08:26;;;;;;;15.48;11.70;;;13.80;99.90;;;;;;4871866;29;20045;-54
2022/09/23 09:10:54;;;;;;;21.33;12.15;;;13.90;99.90;;;;;;4870114;29;20052;-51
2022/09/23 09:13:34;;;;;;;14.50;10.95;;;13.90;99.90;;;;;;4867828;29;20087;-52
2022/09/23 09:16:15;;;;;;;17.02;11.75;;;13.90;99.90;;;;;;4874365;29;20111;-54
2022/09/23 09:18:54;;;;;;;12.68;10.93;;;14.00;99.90;;;;;;4872214;29;20120;-52
2022/09/23 09:21:30;;;;;;;17.55;10.90;;;14.10;99.90;;;;;;4871092;29;20078;-53
2022/09/23 09:23:58;;;;;;;14.60;11.95;;;14.20;99.90;;;;;;4870161;29;20167;-53
2022/09/23 09:26:31;;;;;;;17.25;11.82;;;14.20;99.90;;;;;;4872120;29;20158;-50
2022/09/23 09:29:08;;;;;;;16.95;11.05;;;14.30;99.90;;;;;;4869561;29;20048;-51
2022/09/23 09:31:46;;;;;;;15.07;11.70;;;14.30;99.90;;;;;;4870947;29;21089;-53
2022/09/23 09:34:37;;;;;;;13.48;11.27;;;14.40;99.90;;;;;;4869437;29;20121;-52
2022/09/23 09:37:22;;;;;;;13.27;11.45;;;14.40;99.90;;;;;;4870827;29;20044;-53
2022/09/23 09:39:48;;;;;;;14.77;11.85;;;14.40;99.90;;;;;;4869612;29;20484;-50
2022/09/23 09:42:24;;;;;;;17.08;10.85;;;14.50;99.90;;;;;;4870491;29;20125;-50
2022/09/23 09:45:01;;;;;;;14.95;10.35;;;14.60;99.90;;;;;;4869910;29;21140;-50
2022/09/23 09:47:47;;;;;;;13.00;10.77;;;14.70;99.90;;;;;;4870308;29;20496;-53
2022/09/23 09:50:37;;;;;;;13.75;10.50;;;14.80;99.90;;;;;;4872276;29;20052;-52
2022/09/23 09:53:13;;;;;;;14.68;10.05;;;14.80;99.80;;;;;;4875409;29;20040;-53
2022/09/23 09:55:40;;;;;;;15.15;10.27;;;14.90;99.80;;;;;;4870367;29;20048;-51
2022/09/23 09:58:12;;;;;;;14.63;10.73;;;14.90;99.70;;;;;;4871387;29;20091;-51
2022/09/23 10:00:41;;;;;;;16.58;10.82;;;14.90;99.60;;;;;;4869419;29;20044;-49
2022/09/23 10:03:13;;;;;;;15.63;9.60;;;15.00;99.70;;;;;;4870940;29;20433;-54
2022/09/23 10:05:44;;;;;;;15.00;10.43;;;15.10;99.90;;;;;;4869290;29;20044;-51
2022/09/23 10:08:31;;;;;;;12.63;9.60;;;15.10;99.80;;;;;;4872724;29;20053;-53
2022/09/23 10:11:01;;;;;;;13.95;9.85;;;15.10;99.10;;;;;;4869489;29;20049;-52
2022/09/23 10:13:29;;;;;;;14.30;9.88;;;15.10;98.90;;;;;;4870015;29;20865;-48
2022/09/23 10:15:56;;;;;;;15.20;9.48;;;15.20;99.00;;;;;;4876208;29;20051;-54
2022/09/23 10:18:23;;;;;;;15.43;10.07;;;15.20;99.00;;;;;;4870052;29;20084;-52
2022/09/23 10:20:49;;;;;;;12.02;9.55;;;15.20;98.90;;;;;;4869352;29;20127;-51
2022/09/23 10:23:21;;;;;;;12.65;10.27;;;15.20;98.90;;;;;;4870172;29;20494;-53
2022/09/23 10:26:02;;;;;;;16.67;10.52;;;15.20;98.80;;;;;;4870482;29;20514;-53
2022/09/23 10:28:37;;;;;;;12.18;10.23;;;15.20;98.70;;;;;;4870276;29;21536;-51
2022/09/23 10:31:05;;;;;;;16.50;9.85;;;15.30;98.70;;;;;;4868868;29;20032;-54
2022/09/23 10:33:31;;;;;;;12.70;9.30;;;15.30;98.80;;;;;;4868879;29;20398;-52
2022/09/23 10:35:56;;;;;;;12.02;9.93;;;15.40;98.70;;;;;;4871580;29;20064;-51
2022/09/23 10:38:22;;;;;;;12.50;9.90;;;15.40;98.60;;;;;;4867833;29;20053;-53
2022/09/23 10:46:37;;;;;;;15.90;9.52;;;15.50;98.20;;;;;;4866544;29;20049;-53
2022/09/23 10:49:34;;;;;;;13.50;10.20;;;15.50;98.30;;;;;;4868805;29;20052;-52
2022/09/23 10:52:06;;;;;;;10.48;9.20;;;15.60;98.20;;;;;;4866937;29;20076;-55
2022/09/23 10:54:56;;;;;;;12.23;9.43;;;15.60;98.10;;;;;;4869364;29;20121;-54
2022/09/23 10:57:43;;;;;;;13.23;9.85;;;15.70;98.10;;;;;;4868601;29;20088;-51
2022/09/23 11:00:24;;;;;;;16.67;9.80;;;15.80;97.90;;;;;;4870319;29;20124;-52
2022/09/23 11:03:08;;;;;;;14.85;10.00;;;15.90;97.80;;;;;;4869433;29;20419;-54
2022/09/23 11:06:15;;;;;;;13.05;9.38;;;15.90;97.80;;;;;;4869877;29;20056;-53
2022/09/23 11:09:20;;;;;;;14.63;10.43;;;16.00;97.70;;;;;;4849764;29;20159;-52
2022/09/23 11:11:53;;;;;;;12.25;9.77;;;16.00;97.70;;;;;;4853503;29;20740;-52
2022/09/23 11:14:40;;;;;;;15.35;10.05;;;16.10;97.80;;;;;;4867926;29;20111;-53
2022/09/23 11:17:17;;;;;;;14.25;9.32;;;16.20;97.70;;;;;;4866076;29;20432;-53
2022/09/23 11:20:17;;;;;;;15.70;10.02;;;16.20;97.70;;;;;;4867893;29;20052;-53
2022/09/23 11:23:06;;;;;;;16.30;10.80;;;16.20;97.50;;;;;;4868639;29;20079;-52
2022/09/23 11:26:19;;;;;;;14.73;10.35;;;16.20;97.30;;;;;;4871620;29;20057;-52
2022/09/23 11:28:53;;;;;;;17.40;11.20;;;16.20;97.30;;;;;;4873956;29;20480;-54
2022/09/23 11:31:41;;;;;;;14.07;10.43;;;16.20;97.40;;;;;;4873605;29;20448;-53
2022/09/23 11:34:35;;;;;;;14.65;10.57;;;16.10;97.30;;;;;;4864573;29;20052;-53
2022/09/23 11:37:21;;;;;;;13.18;10.77;;;16.10;97.50;;;;;;4866528;29;20060;-54
2022/09/23 11:39:58;;;;;;;13.68;10.73;;;16.20;97.60;;;;;;4869902;29;20514;-52
2022/09/23 11:42:39;;;;;;;15.80;12.25;;;16.20;98.00;;;;;;4866105;29;20045;-54
2022/09/23 11:45:17;;;;;;;16.38;10.40;;;16.20;97.80;;;;;;4866222;29;22674;-52
2022/09/23 11:48:17;;;;;;;15.73;10.95;;;16.20;97.90;;;;;;4864325;29;20041;-53
2022/09/23 11:50:56;;;;;;;14.43;11.02;;;16.20;97.80;;;;;;4865774;29;20045;-53
2022/09/23 11:53:35;;;;;;;15.95;10.95;;;16.30;98.10;;;;;;4862597;29;20048;-54
2022/09/23 11:56:08;;;;;;;16.13;11.05;;;16.30;98.10;;;;;;4867050;29;20084;-53
2022/09/23 11:58:43;;;;;;;14.30;10.40;;;16.30;98.30;;;;;;4868107;29;20043;-54
2022/09/23 12:01:18;;;;;;;13.85;10.60;;;16.40;98.40;;;;;;4868351;29;20693;-53
2022/09/23 12:03:59;;;;;;;18.35;10.45;;;16.40;98.40;;;;;;4867856;29;20055;-55
2022/09/23 12:06:36;;;;;;;18.25;10.80;;;16.40;98.40;;;;;;4867754;29;20048;-53
2022/09/23 12:09:30;;;;;;;13.85;10.82;;;16.40;98.40;;;;;;4866939;29;20065;-54
2022/09/23 12:12:11;;;;;;;14.95;9.95;;;16.40;98.50;;;;;;4852933;29;20045;-54
2022/09/23 12:15:20;;;;;;;18.40;10.25;;;16.40;98.30;;;;;;4868067;29;20127;-53
2022/09/23 12:18:15;;;;;;;16.52;11.40;;;16.50;98.40;;;;;;4863382;29;20049;-54
2022/09/23 12:20:49;;;;;;;14.40;10.75;;;16.40;98.60;;;;;;4877539;29;20051;-53
2022/09/23 12:23:42;;;;;;;15.02;10.95;;;16.40;98.60;;;;;;4860365;29;27411;-54
2022/09/23 12:26:11;;;;;;;;;;;16.40;98.60;;;;;;4867458;29;20187;-53
2022/09/23 12:28:43;;;;;;;14.52;10.52;;;16.50;98.60;;;;;;4860174;29;19923;-55
2022/09/23 12:31:16;;;;;;;14.55;10.38;;;16.50;98.70;;;;;;4863690;29;21030;-55
2022/09/23 12:33:49;;;;;;;13.27;11.05;;;16.50;98.80;;;;;;4861999;29;20049;-55
2022/09/23 12:36:16;;;;;;;15.68;12.10;;;16.50;98.80;;;;;;4862481;29;20084;-55
2022/09/23 12:38:50;;;;;;;18.70;12.15;;;16.60;99.00;;;;;;4860995;29;20068;-53
2022/09/23 12:41:41;;;;;;;16.30;12.57;;;16.60;98.80;;;;;;4880699;29;20083;-54
2022/09/23 12:44:09;;;;;;;16.67;12.15;;;16.60;98.90;;;;;;4858267;29;20052;-53
2022/09/23 12:46:35;;;;;;;17.73;12.27;;;16.70;99.00;;;;;;4866199;29;20516;-55
2022/09/23 12:49:03;;;;;;;15.98;12.00;;;16.70;99.10;;;;;;4864723;29;20049;-54
2022/09/23 12:51:36;;;;;;;15.32;11.50;;;16.70;99.20;;;;;;4861985;29;20397;-53
2022/09/23 12:54:05;;;;;;;16.92;12.05;;;16.80;99.20;;;;;;4863220;29;20539;-56
2022/09/23 12:56:37;;;;;;;17.10;11.55;;;16.80;99.00;;;;;;4866885;29;20053;-56
2022/09/23 12:59:16;;;;;;;14.25;11.15;;;16.80;99.10;;;;;;4869432;29;20512;-56
2022/09/23 13:01:43;;;;;;;14.75;11.38;;;16.90;98.90;;;;;;4866997;29;20480;-53
2022/09/23 13:07:30;;;;;;;20.40;12.73;;;16.90;98.90;;;;;;4866192;29;20468;-55
2022/09/23 13:10:21;;;;;;;18.45;12.75;;;16.90;99.10;;;;;;4862228;29;20546;-57